sensor_id;sensor_type;location;lat;lon;timestamp;P1;durP1;ratioP1;P2;durP2;ratioP2
2898;SDS011;1459;50.864;6.438;2022-12-29T00:01:58;1.13;;;0.60;;
2898;SDS011;1459;50.864;6.438;2022-12-29T00:04:25;0.80;;;0.60;;
2898;SDS011;1459;50.864;6.438;2022-12-29T00:06:52;0.90;;;0.60;;
2898;SDS011;1459;50.864;6.438;2022-12-29T00:09:19;1.00;;;0.70;;
2898;SDS011;1459;50.864;6.438;2022-12-29T00:11:46;1.00;;;0.70;;
2898;SDS011;1459;50.864;6.438;2022-12-29T00:14:16;1.17;;;0.60;;
2898;SDS011;1459;50.864;6.438;2022-12-29T00:17:01;0.90;;;0.60;;
2898;SDS011;1459;50.864;6.438;2022-12-29T00:19:28;0.80;;;0.50;;
2898;SDS011;1459;50.864;6.438;2022-12-29T00:22:13;0.80;;;0.50;;
2898;SDS011;1459;50.864;6.438;2022-12-29T00:24:58;1.00;;;0.63;;
2898;SDS011;1459;50.864;6.438;2022-12-29T00:27:42;3.28;;;0.60;;
2898;SDS011;1459;50.864;6.438;2022-12-29T00:30:28;0.88;;;0.50;;
2898;SDS011;1459;50.864;6.438;2022-12-29T00:33:14;0.80;;;0.52;;
2898;SDS011;1459;50.864;6.438;2022-12-29T00:36:06;1.00;;;0.68;;
2898;SDS011;1459;50.864;6.438;2022-12-29T00:38:37;0.95;;;0.60;;
2898;SDS011;1459;50.864;6.438;2022-12-29T00:41:36;1.15;;;0.60;;
2898;SDS011;1459;50.864;6.438;2022-12-29T00:44:20;0.90;;;0.60;;
2898;SDS011;1459;50.864;6.438;2022-12-29T00:46:49;1.10;;;0.50;;
2898;SDS011;1459;50.864;6.438;2022-12-29T00:49:18;1.75;;;0.70;;
2898;SDS011;1459;50.864;6.438;2022-12-29T00:51:58;1.00;;;0.70;;
2898;SDS011;1459;50.864;6.438;2022-12-29T00:54:28;0.90;;;0.60;;
2898;SDS011;1459;50.864;6.438;2022-12-29T00:56:57;0.88;;;0.52;;
2898;SDS011;1459;50.864;6.438;2022-12-29T00:59:24;0.90;;;0.60;;
2898;SDS011;1459;50.864;6.438;2022-12-29T01:01:53;0.80;;;0.60;;
2898;SDS011;1459;50.864;6.438;2022-12-29T01:04:21;0.77;;;0.52;;
2898;SDS011;1459;50.864;6.438;2022-12-29T01:06:49;1.60;;;0.70;;
2898;SDS011;1459;50.864;6.438;2022-12-29T01:09:17;0.80;;;0.60;;
2898;SDS011;1459;50.864;6.438;2022-12-29T01:12:02;1.00;;;0.70;;
2898;SDS011;1459;50.864;6.438;2022-12-29T01:14:29;1.20;;;0.75;;
2898;SDS011;1459;50.864;6.438;2022-12-29T01:16:58;1.40;;;0.80;;
2898;SDS011;1459;50.864;6.438;2022-12-29T01:19:25;1.02;;;0.70;;
2898;SDS011;1459;50.864;6.438;2022-12-29T01:21:53;1.00;;;0.70;;
2898;SDS011;1459;50.864;6.438;2022-12-29T01:24:20;1.10;;;0.80;;
2898;SDS011;1459;50.864;6.438;2022-12-29T01:26:49;2.95;;;0.93;;
2898;SDS011;1459;50.864;6.438;2022-12-29T01:29:16;1.00;;;0.80;;
2898;SDS011;1459;50.864;6.438;2022-12-29T01:31:43;1.00;;;0.70;;
2898;SDS011;1459;50.864;6.438;2022-12-29T01:34:12;1.35;;;0.80;;
2898;SDS011;1459;50.864;6.438;2022-12-29T01:36:39;1.20;;;0.80;;
2898;SDS011;1459;50.864;6.438;2022-12-29T01:39:06;1.60;;;0.93;;
2898;SDS011;1459;50.864;6.438;2022-12-29T01:41:33;1.65;;;0.90;;
2898;SDS011;1459;50.864;6.438;2022-12-29T01:47:05;1.25;;;0.98;;
2898;SDS011;1459;50.864;6.438;2022-12-29T01:49:35;1.30;;;0.93;;
2898;SDS011;1459;50.864;6.438;2022-12-29T01:52:05;2.08;;;1.20;;
2898;SDS011;1459;50.864;6.438;2022-12-29T01:54:34;1.60;;;0.95;;
2898;SDS011;1459;50.864;6.438;2022-12-29T01:57:06;3.25;;;1.13;;
2898;SDS011;1459;50.864;6.438;2022-12-29T01:59:37;3.30;;;1.15;;
2898;SDS011;1459;50.864;6.438;2022-12-29T02:02:07;1.70;;;0.98;;
2898;SDS011;1459;50.864;6.438;2022-12-29T02:04:36;2.08;;;0.80;;
2898;SDS011;1459;50.864;6.438;2022-12-29T02:07:10;3.63;;;1.20;;
2898;SDS011;1459;50.864;6.438;2022-12-29T02:09:41;2.67;;;1.00;;
2898;SDS011;1459;50.864;6.438;2022-12-29T02:12:09;1.67;;;1.08;;
2898;SDS011;1459;50.864;6.438;2022-12-29T02:14:37;1.50;;;1.08;;
2898;SDS011;1459;50.864;6.438;2022-12-29T02:17:07;1.70;;;0.98;;
2898;SDS011;1459;50.864;6.438;2022-12-29T02:19:52;2.00;;;0.80;;
2898;SDS011;1459;50.864;6.438;2022-12-29T02:22:37;1.33;;;0.80;;
2898;SDS011;1459;50.864;6.438;2022-12-29T02:28:19;1.35;;;0.75;;
2898;SDS011;1459;50.864;6.438;2022-12-29T02:31:20;1.23;;;0.70;;
2898;SDS011;1459;50.864;6.438;2022-12-29T02:33:55;2.05;;;0.80;;
2898;SDS011;1459;50.864;6.438;2022-12-29T02:36:33;2.33;;;0.80;;
2898;SDS011;1459;50.864;6.438;2022-12-29T02:39:12;1.60;;;1.00;;
2898;SDS011;1459;50.864;6.438;2022-12-29T02:41:49;1.30;;;0.80;;
2898;SDS011;1459;50.864;6.438;2022-12-29T02:44:27;1.00;;;0.70;;
2898;SDS011;1459;50.864;6.438;2022-12-29T02:47:04;6.18;;;0.90;;
2898;SDS011;1459;50.864;6.438;2022-12-29T02:49:34;1.15;;;0.80;;
2898;SDS011;1459;50.864;6.438;2022-12-29T02:52:04;1.00;;;0.70;;
2898;SDS011;1459;50.864;6.438;2022-12-29T02:54:34;1.52;;;0.90;;
2898;SDS011;1459;50.864;6.438;2022-12-29T02:57:09;2.95;;;1.90;;
2898;SDS011;1459;50.864;6.438;2022-12-29T02:59:39;1.10;;;1.00;;
2898;SDS011;1459;50.864;6.438;2022-12-29T03:02:14;2.42;;;0.88;;
2898;SDS011;1459;50.864;6.438;2022-12-29T03:07:52;0.90;;;0.60;;
2898;SDS011;1459;50.864;6.438;2022-12-29T03:10:30;1.27;;;0.70;;
2898;SDS011;1459;50.864;6.438;2022-12-29T03:13:11;1.00;;;0.70;;
2898;SDS011;1459;50.864;6.438;2022-12-29T03:16:03;1.17;;;0.70;;
2898;SDS011;1459;50.864;6.438;2022-12-29T03:18:40;1.52;;;0.70;;
2898;SDS011;1459;50.864;6.438;2022-12-29T03:21:13;2.97;;;0.75;;
2898;SDS011;1459;50.864;6.438;2022-12-29T03:23:45;0.90;;;0.60;;
2898;SDS011;1459;50.864;6.438;2022-12-29T03:26:16;1.52;;;0.60;;
2898;SDS011;1459;50.864;6.438;2022-12-29T03:28:49;1.10;;;0.70;;
2898;SDS011;1459;50.864;6.438;2022-12-29T03:31:19;1.27;;;0.80;;
2898;SDS011;1459;50.864;6.438;2022-12-29T03:33:49;1.48;;;0.80;;
2898;SDS011;1459;50.864;6.438;2022-12-29T03:36:20;1.60;;;0.70;;
2898;SDS011;1459;50.864;6.438;2022-12-29T03:38:55;1.55;;;0.80;;
2898;SDS011;1459;50.864;6.438;2022-12-29T03:41:28;1.40;;;0.90;;
2898;SDS011;1459;50.864;6.438;2022-12-29T03:43:57;1.95;;;0.80;;
2898;SDS011;1459;50.864;6.438;2022-12-29T03:46:24;1.10;;;0.70;;
2898;SDS011;1459;50.864;6.438;2022-12-29T03:48:53;2.22;;;0.75;;
2898;SDS011;1459;50.864;6.438;2022-12-29T03:51:20;1.60;;;1.00;;
2898;SDS011;1459;50.864;6.438;2022-12-29T03:53:47;1.75;;;0.82;;
2898;SDS011;1459;50.864;6.438;2022-12-29T03:56:14;1.42;;;0.93;;
2898;SDS011;1459;50.864;6.438;2022-12-29T03:58:43;2.03;;;1.05;;
2898;SDS011;1459;50.864;6.438;2022-12-29T04:01:10;4.40;;;2.10;;
2898;SDS011;1459;50.864;6.438;2022-12-29T04:03:37;1.35;;;1.05;;
2898;SDS011;1459;50.864;6.438;2022-12-29T04:06:06;2.00;;;0.90;;
2898;SDS011;1459;50.864;6.438;2022-12-29T04:08:33;1.50;;;0.95;;
2898;SDS011;1459;50.864;6.438;2022-12-29T04:11:01;1.45;;;0.75;;
2898;SDS011;1459;50.864;6.438;2022-12-29T04:13:28;1.23;;;0.70;;
2898;SDS011;1459;50.864;6.438;2022-12-29T04:15:55;1.25;;;0.90;;
2898;SDS011;1459;50.864;6.438;2022-12-29T04:18:22;1.20;;;0.98;;
2898;SDS011;1459;50.864;6.438;2022-12-29T04:20:50;1.15;;;0.70;;
2898;SDS011;1459;50.864;6.438;2022-12-29T04:23:27;1.83;;;1.00;;
2898;SDS011;1459;50.864;6.438;2022-12-29T04:25:54;1.45;;;0.90;;
2898;SDS011;1459;50.864;6.438;2022-12-29T04:28:22;2.95;;;0.90;;
2898;SDS011;1459;50.864;6.438;2022-12-29T04:30:49;0.90;;;0.70;;
2898;SDS011;1459;50.864;6.438;2022-12-29T04:33:16;1.55;;;1.10;;
2898;SDS011;1459;50.864;6.438;2022-12-29T04:35:43;1.45;;;0.95;;
2898;SDS011;1459;50.864;6.438;2022-12-29T04:38:10;1.15;;;0.85;;
2898;SDS011;1459;50.864;6.438;2022-12-29T04:40:39;1.10;;;0.75;;
2898;SDS011;1459;50.864;6.438;2022-12-29T04:43:07;1.55;;;0.90;;
2898;SDS011;1459;50.864;6.438;2022-12-29T04:45:35;1.38;;;0.85;;
2898;SDS011;1459;50.864;6.438;2022-12-29T04:48:03;2.72;;;1.13;;
2898;SDS011;1459;50.864;6.438;2022-12-29T04:50:30;3.72;;;0.85;;
2898;SDS011;1459;50.864;6.438;2022-12-29T04:52:57;2.40;;;0.82;;
2898;SDS011;1459;50.864;6.438;2022-12-29T04:55:25;2.13;;;1.30;;
2898;SDS011;1459;50.864;6.438;2022-12-29T04:57:54;1.00;;;0.70;;
2898;SDS011;1459;50.864;6.438;2022-12-29T05:00:21;1.90;;;0.85;;
2898;SDS011;1459;50.864;6.438;2022-12-29T05:02:49;1.40;;;0.90;;
2898;SDS011;1459;50.864;6.438;2022-12-29T05:05:16;1.20;;;1.05;;
2898;SDS011;1459;50.864;6.438;2022-12-29T05:07:43;1.88;;;0.90;;
2898;SDS011;1459;50.864;6.438;2022-12-29T05:10:10;1.65;;;0.80;;
2898;SDS011;1459;50.864;6.438;2022-12-29T05:12:38;1.65;;;0.90;;
2898;SDS011;1459;50.864;6.438;2022-12-29T05:15:07;1.70;;;1.20;;
2898;SDS011;1459;50.864;6.438;2022-12-29T05:17:35;2.85;;;0.90;;
2898;SDS011;1459;50.864;6.438;2022-12-29T05:20:02;2.63;;;1.00;;
2898;SDS011;1459;50.864;6.438;2022-12-29T05:22:30;3.28;;;0.80;;
2898;SDS011;1459;50.864;6.438;2022-12-29T05:24:57;3.05;;;0.80;;
2898;SDS011;1459;50.864;6.438;2022-12-29T05:27:24;12.85;;;1.30;;
2898;SDS011;1459;50.864;6.438;2022-12-29T05:29:52;1.92;;;0.98;;
2898;SDS011;1459;50.864;6.438;2022-12-29T05:32:22;1.63;;;0.80;;
2898;SDS011;1459;50.864;6.438;2022-12-29T05:34:49;2.85;;;0.93;;
2898;SDS011;1459;50.864;6.438;2022-12-29T05:37:16;1.08;;;0.70;;
2898;SDS011;1459;50.864;6.438;2022-12-29T05:39:43;1.92;;;0.73;;
2898;SDS011;1459;50.864;6.438;2022-12-29T05:42:10;1.20;;;0.63;;
2898;SDS011;1459;50.864;6.438;2022-12-29T05:44:37;3.30;;;0.93;;
2898;SDS011;1459;50.864;6.438;2022-12-29T05:47:04;2.50;;;0.90;;
2898;SDS011;1459;50.864;6.438;2022-12-29T05:49:32;1.23;;;1.00;;
2898;SDS011;1459;50.864;6.438;2022-12-29T05:51:59;1.25;;;0.73;;
2898;SDS011;1459;50.864;6.438;2022-12-29T05:54:26;1.98;;;1.00;;
2898;SDS011;1459;50.864;6.438;2022-12-29T05:56:53;4.00;;;1.00;;
2898;SDS011;1459;50.864;6.438;2022-12-29T05:59:21;2.50;;;1.02;;
2898;SDS011;1459;50.864;6.438;2022-12-29T06:01:48;2.15;;;0.93;;
2898;SDS011;1459;50.864;6.438;2022-12-29T06:04:15;4.47;;;1.02;;
2898;SDS011;1459;50.864;6.438;2022-12-29T06:06:44;1.40;;;0.80;;
2898;SDS011;1459;50.864;6.438;2022-12-29T06:09:11;2.63;;;1.00;;
2898;SDS011;1459;50.864;6.438;2022-12-29T06:11:38;3.25;;;1.20;;
2898;SDS011;1459;50.864;6.438;2022-12-29T06:14:05;1.65;;;0.70;;
2898;SDS011;1459;50.864;6.438;2022-12-29T06:16:32;2.15;;;0.82;;
2898;SDS011;1459;50.864;6.438;2022-12-29T06:18:59;1.77;;;0.82;;
2898;SDS011;1459;50.864;6.438;2022-12-29T06:21:26;1.67;;;0.82;;
2898;SDS011;1459;50.864;6.438;2022-12-29T06:23:55;4.13;;;1.17;;
2898;SDS011;1459;50.864;6.438;2022-12-29T06:26:22;2.00;;;0.82;;
2898;SDS011;1459;50.864;6.438;2022-12-29T06:28:49;2.65;;;0.95;;
2898;SDS011;1459;50.864;6.438;2022-12-29T06:31:16;3.05;;;1.13;;
2898;SDS011;1459;50.864;6.438;2022-12-29T06:33:43;1.05;;;0.68;;
2898;SDS011;1459;50.864;6.438;2022-12-29T06:36:10;1.30;;;0.90;;
2898;SDS011;1459;50.864;6.438;2022-12-29T06:38:37;3.95;;;0.90;;
2898;SDS011;1459;50.864;6.438;2022-12-29T06:41:05;1.85;;;1.05;;
2898;SDS011;1459;50.864;6.438;2022-12-29T06:43:33;2.53;;;0.80;;
2898;SDS011;1459;50.864;6.438;2022-12-29T06:46:03;2.22;;;0.95;;
2898;SDS011;1459;50.864;6.438;2022-12-29T06:48:30;3.17;;;1.05;;
2898;SDS011;1459;50.864;6.438;2022-12-29T06:50:57;2.85;;;0.90;;
2898;SDS011;1459;50.864;6.438;2022-12-29T06:53:24;1.10;;;0.88;;
2898;SDS011;1459;50.864;6.438;2022-12-29T06:55:51;1.13;;;0.80;;
2898;SDS011;1459;50.864;6.438;2022-12-29T06:58:19;1.90;;;1.23;;
2898;SDS011;1459;50.864;6.438;2022-12-29T07:00:46;1.73;;;1.00;;
2898;SDS011;1459;50.864;6.438;2022-12-29T07:03:14;1.70;;;1.08;;
2898;SDS011;1459;50.864;6.438;2022-12-29T07:05:41;2.95;;;1.10;;
2898;SDS011;1459;50.864;6.438;2022-12-29T07:08:08;2.00;;;1.02;;
2898;SDS011;1459;50.864;6.438;2022-12-29T07:10:35;2.70;;;1.80;;
2898;SDS011;1459;50.864;6.438;2022-12-29T07:13:02;2.65;;;1.15;;
2898;SDS011;1459;50.864;6.438;2022-12-29T07:15:34;3.75;;;1.40;;
2898;SDS011;1459;50.864;6.438;2022-12-29T07:18:02;5.28;;;1.00;;
2898;SDS011;1459;50.864;6.438;2022-12-29T07:20:29;2.78;;;1.90;;
2898;SDS011;1459;50.864;6.438;2022-12-29T07:22:56;2.65;;;1.15;;
2898;SDS011;1459;50.864;6.438;2022-12-29T07:25:23;1.70;;;1.60;;
2898;SDS011;1459;50.864;6.438;2022-12-29T07:27:51;2.05;;;1.02;;
2898;SDS011;1459;50.864;6.438;2022-12-29T07:30:17;2.30;;;1.30;;
2898;SDS011;1459;50.864;6.438;2022-12-29T07:32:46;2.85;;;1.20;;
2898;SDS011;1459;50.864;6.438;2022-12-29T07:35:13;4.90;;;1.58;;
2898;SDS011;1459;50.864;6.438;2022-12-29T07:37:41;3.22;;;1.00;;
2898;SDS011;1459;50.864;6.438;2022-12-29T07:40:08;3.85;;;1.10;;
2898;SDS011;1459;50.864;6.438;2022-12-29T07:42:36;5.45;;;1.00;;
2898;SDS011;1459;50.864;6.438;2022-12-29T07:45:03;3.45;;;1.27;;
2898;SDS011;1459;50.864;6.438;2022-12-29T07:47:31;4.80;;;1.42;;
2898;SDS011;1459;50.864;6.438;2022-12-29T07:49:59;5.82;;;1.70;;
2898;SDS011;1459;50.864;6.438;2022-12-29T07:52:27;5.38;;;1.27;;
2898;SDS011;1459;50.864;6.438;2022-12-29T07:54:54;4.63;;;1.40;;
2898;SDS011;1459;50.864;6.438;2022-12-29T07:57:21;2.38;;;1.10;;
2898;SDS011;1459;50.864;6.438;2022-12-29T07:59:48;2.40;;;1.10;;
2898;SDS011;1459;50.864;6.438;2022-12-29T08:02:15;4.32;;;1.30;;
2898;SDS011;1459;50.864;6.438;2022-12-29T08:04:42;3.10;;;1.40;;
2898;SDS011;1459;50.864;6.438;2022-12-29T08:07:10;3.95;;;1.05;;
2898;SDS011;1459;50.864;6.438;2022-12-29T08:09:37;5.70;;;1.45;;
2898;SDS011;1459;50.864;6.438;2022-12-29T08:12:04;4.20;;;1.25;;
2898;SDS011;1459;50.864;6.438;2022-12-29T08:14:31;3.83;;;1.50;;
2898;SDS011;1459;50.864;6.438;2022-12-29T08:16:58;7.78;;;1.33;;
2898;SDS011;1459;50.864;6.438;2022-12-29T08:19:25;5.18;;;1.35;;
2898;SDS011;1459;50.864;6.438;2022-12-29T08:21:52;3.80;;;1.30;;
2898;SDS011;1459;50.864;6.438;2022-12-29T08:24:22;3.97;;;1.30;;
2898;SDS011;1459;50.864;6.438;2022-12-29T08:26:49;5.25;;;1.80;;
2898;SDS011;1459;50.864;6.438;2022-12-29T08:29:16;3.78;;;1.50;;
2898;SDS011;1459;50.864;6.438;2022-12-29T08:31:44;4.68;;;1.25;;
2898;SDS011;1459;50.864;6.438;2022-12-29T08:34:11;6.05;;;1.33;;
2898;SDS011;1459;50.864;6.438;2022-12-29T08:36:38;4.55;;;1.70;;
2898;SDS011;1459;50.864;6.438;2022-12-29T08:39:05;5.93;;;1.45;;
2898;SDS011;1459;50.864;6.438;2022-12-29T08:41:35;6.72;;;1.55;;
2898;SDS011;1459;50.864;6.438;2022-12-29T08:44:03;3.88;;;1.05;;
2898;SDS011;1459;50.864;6.438;2022-12-29T08:46:30;3.13;;;1.45;;
2898;SDS011;1459;50.864;6.438;2022-12-29T08:49:01;6.93;;;1.60;;
2898;SDS011;1459;50.864;6.438;2022-12-29T08:51:28;4.85;;;1.10;;
2898;SDS011;1459;50.864;6.438;2022-12-29T08:53:55;4.20;;;1.65;;
2898;SDS011;1459;50.864;6.438;2022-12-29T08:56:24;4.13;;;1.23;;
2898;SDS011;1459;50.864;6.438;2022-12-29T08:58:52;8.40;;;1.75;;
2898;SDS011;1459;50.864;6.438;2022-12-29T09:01:20;5.85;;;2.50;;
2898;SDS011;1459;50.864;6.438;2022-12-29T09:03:47;2.50;;;1.10;;
2898;SDS011;1459;50.864;6.438;2022-12-29T09:06:15;9.18;;;2.38;;
2898;SDS011;1459;50.864;6.438;2022-12-29T09:08:44;3.03;;;1.30;;
2898;SDS011;1459;50.864;6.438;2022-12-29T09:11:13;7.00;;;1.63;;
2898;SDS011;1459;50.864;6.438;2022-12-29T09:13:43;3.85;;;1.50;;
2898;SDS011;1459;50.864;6.438;2022-12-29T09:16:11;3.33;;;1.60;;
2898;SDS011;1459;50.864;6.438;2022-12-29T09:18:39;5.22;;;1.45;;
2898;SDS011;1459;50.864;6.438;2022-12-29T09:21:06;5.90;;;1.45;;
2898;SDS011;1459;50.864;6.438;2022-12-29T09:23:33;7.97;;;1.60;;
2898;SDS011;1459;50.864;6.438;2022-12-29T09:26:01;8.18;;;1.80;;
2898;SDS011;1459;50.864;6.438;2022-12-29T09:28:28;3.58;;;1.13;;
2898;SDS011;1459;50.864;6.438;2022-12-29T09:30:56;7.10;;;1.70;;
2898;SDS011;1459;50.864;6.438;2022-12-29T09:33:25;4.55;;;1.65;;
2898;SDS011;1459;50.864;6.438;2022-12-29T09:35:53;4.90;;;1.63;;
2898;SDS011;1459;50.864;6.438;2022-12-29T09:38:21;4.28;;;1.30;;
2898;SDS011;1459;50.864;6.438;2022-12-29T09:40:50;3.58;;;1.30;;
2898;SDS011;1459;50.864;6.438;2022-12-29T09:46:13;3.90;;;1.70;;
2898;SDS011;1459;50.864;6.438;2022-12-29T09:48:49;12.70;;;1.25;;
2898;SDS011;1459;50.864;6.438;2022-12-29T09:51:21;4.20;;;1.83;;
2898;SDS011;1459;50.864;6.438;2022-12-29T09:53:51;5.70;;;1.60;;
2898;SDS011;1459;50.864;6.438;2022-12-29T09:56:24;6.35;;;1.85;;
2898;SDS011;1459;50.864;6.438;2022-12-29T09:58:54;5.15;;;2.17;;
2898;SDS011;1459;50.864;6.438;2022-12-29T10:01:27;2.85;;;1.48;;
2898;SDS011;1459;50.864;6.438;2022-12-29T10:03:59;4.68;;;1.65;;
2898;SDS011;1459;50.864;6.438;2022-12-29T10:06:32;5.50;;;1.50;;
2898;SDS011;1459;50.864;6.438;2022-12-29T10:09:11;4.40;;;1.30;;
2898;SDS011;1459;50.864;6.438;2022-12-29T10:11:51;6.07;;;2.03;;
2898;SDS011;1459;50.864;6.438;2022-12-29T10:14:40;8.77;;;1.27;;
2898;SDS011;1459;50.864;6.438;2022-12-29T10:17:22;8.75;;;3.00;;
2898;SDS011;1459;50.864;6.438;2022-12-29T10:20:00;6.28;;;1.30;;
2898;SDS011;1459;50.864;6.438;2022-12-29T10:22:43;4.80;;;1.23;;
2898;SDS011;1459;50.864;6.438;2022-12-29T10:25:24;4.25;;;1.25;;
2898;SDS011;1459;50.864;6.438;2022-12-29T10:27:53;4.50;;;1.65;;
2898;SDS011;1459;50.864;6.438;2022-12-29T10:30:24;2.92;;;1.30;;
2898;SDS011;1459;50.864;6.438;2022-12-29T10:32:51;4.32;;;1.38;;
2898;SDS011;1459;50.864;6.438;2022-12-29T10:35:23;7.13;;;1.60;;
2898;SDS011;1459;50.864;6.438;2022-12-29T10:37:53;4.28;;;1.63;;
2898;SDS011;1459;50.864;6.438;2022-12-29T10:40:28;5.30;;;1.38;;
2898;SDS011;1459;50.864;6.438;2022-12-29T10:43:03;8.93;;;2.15;;
2898;SDS011;1459;50.864;6.438;2022-12-29T10:45:40;3.83;;;1.40;;
2898;SDS011;1459;50.864;6.438;2022-12-29T10:48:09;6.45;;;1.70;;
2898;SDS011;1459;50.864;6.438;2022-12-29T10:50:41;6.53;;;2.78;;
2898;SDS011;1459;50.864;6.438;2022-12-29T10:53:12;9.05;;;2.33;;
2898;SDS011;1459;50.864;6.438;2022-12-29T10:55:45;3.78;;;1.65;;
2898;SDS011;1459;50.864;6.438;2022-12-29T10:58:13;6.93;;;1.95;;
2898;SDS011;1459;50.864;6.438;2022-12-29T11:00:41;3.67;;;1.40;;
2898;SDS011;1459;50.864;6.438;2022-12-29T11:06:10;5.57;;;1.50;;
2898;SDS011;1459;50.864;6.438;2022-12-29T11:08:45;5.03;;;1.55;;
2898;SDS011;1459;50.864;6.438;2022-12-29T11:11:21;4.15;;;1.30;;
2898;SDS011;1459;50.864;6.438;2022-12-29T11:13:58;5.28;;;1.52;;
2898;SDS011;1459;50.864;6.438;2022-12-29T11:16:30;7.40;;;1.50;;
2898;SDS011;1459;50.864;6.438;2022-12-29T11:18:59;4.10;;;1.40;;
2898;SDS011;1459;50.864;6.438;2022-12-29T11:21:30;2.40;;;1.23;;
2898;SDS011;1459;50.864;6.438;2022-12-29T11:23:59;5.57;;;1.40;;
2898;SDS011;1459;50.864;6.438;2022-12-29T11:26:28;3.30;;;1.40;;
2898;SDS011;1459;50.864;6.438;2022-12-29T11:29:20;4.82;;;1.40;;
2898;SDS011;1459;50.864;6.438;2022-12-29T11:31:50;5.10;;;1.88;;
2898;SDS011;1459;50.864;6.438;2022-12-29T11:34:19;4.97;;;1.60;;
2898;SDS011;1459;50.864;6.438;2022-12-29T11:36:50;6.03;;;1.73;;
2898;SDS011;1459;50.864;6.438;2022-12-29T11:39:29;5.47;;;1.55;;
2898;SDS011;1459;50.864;6.438;2022-12-29T11:41:59;5.13;;;1.83;;
2898;SDS011;1459;50.864;6.438;2022-12-29T11:44:31;5.65;;;2.03;;
2898;SDS011;1459;50.864;6.438;2022-12-29T11:47:12;2.72;;;1.30;;
2898;SDS011;1459;50.864;6.438;2022-12-29T11:49:48;5.45;;;1.60;;
2898;SDS011;1459;50.864;6.438;2022-12-29T11:52:21;4.55;;;1.80;;
2898;SDS011;1459;50.864;6.438;2022-12-29T11:54:50;7.30;;;1.35;;
2898;SDS011;1459;50.864;6.438;2022-12-29T11:57:18;5.15;;;1.70;;
2898;SDS011;1459;50.864;6.438;2022-12-29T11:59:49;5.38;;;1.73;;
2898;SDS011;1459;50.864;6.438;2022-12-29T12:02:31;8.38;;;1.70;;
2898;SDS011;1459;50.864;6.438;2022-12-29T12:05:03;5.70;;;1.70;;
2898;SDS011;1459;50.864;6.438;2022-12-29T12:07:41;6.68;;;1.80;;
2898;SDS011;1459;50.864;6.438;2022-12-29T12:10:15;8.32;;;2.20;;
2898;SDS011;1459;50.864;6.438;2022-12-29T12:12:47;2.60;;;1.48;;
2898;SDS011;1459;50.864;6.438;2022-12-29T12:15:20;3.85;;;1.52;;
2898;SDS011;1459;50.864;6.438;2022-12-29T12:17:54;5.35;;;1.65;;
2898;SDS011;1459;50.864;6.438;2022-12-29T12:20:27;3.90;;;1.30;;
2898;SDS011;1459;50.864;6.438;2022-12-29T12:23:10;5.00;;;1.33;;
2898;SDS011;1459;50.864;6.438;2022-12-29T12:25:45;3.30;;;1.40;;
2898;SDS011;1459;50.864;6.438;2022-12-29T12:28:20;4.03;;;1.75;;
2898;SDS011;1459;50.864;6.438;2022-12-29T12:30:53;4.28;;;1.70;;
2898;SDS011;1459;50.864;6.438;2022-12-29T12:33:24;5.57;;;1.52;;
2898;SDS011;1459;50.864;6.438;2022-12-29T12:35:59;8.05;;;2.25;;
2898;SDS011;1459;50.864;6.438;2022-12-29T12:38:43;4.72;;;1.38;;
2898;SDS011;1459;50.864;6.438;2022-12-29T12:41:20;6.57;;;2.45;;
2898;SDS011;1459;50.864;6.438;2022-12-29T12:43:58;5.72;;;1.70;;
2898;SDS011;1459;50.864;6.438;2022-12-29T12:46:36;4.13;;;1.45;;
2898;SDS011;1459;50.864;6.438;2022-12-29T12:49:26;5.22;;;1.30;;
2898;SDS011;1459;50.864;6.438;2022-12-29T12:52:05;3.40;;;1.50;;
2898;SDS011;1459;50.864;6.438;2022-12-29T12:54:46;8.40;;;1.70;;
2898;SDS011;1459;50.864;6.438;2022-12-29T12:57:36;4.60;;;1.30;;
2898;SDS011;1459;50.864;6.438;2022-12-29T13:00:16;3.30;;;1.42;;
2898;SDS011;1459;50.864;6.438;2022-12-29T13:02:49;7.78;;;1.48;;
2898;SDS011;1459;50.864;6.438;2022-12-29T13:05:38;3.58;;;1.30;;
2898;SDS011;1459;50.864;6.438;2022-12-29T13:08:37;4.93;;;1.50;;
2898;SDS011;1459;50.864;6.438;2022-12-29T13:11:25;5.55;;;1.60;;
2898;SDS011;1459;50.864;6.438;2022-12-29T13:14:02;8.80;;;1.60;;
2898;SDS011;1459;50.864;6.438;2022-12-29T13:16:41;6.65;;;1.70;;
2898;SDS011;1459;50.864;6.438;2022-12-29T13:19:16;5.50;;;2.20;;
2898;SDS011;1459;50.864;6.438;2022-12-29T13:21:53;4.85;;;1.85;;
2898;SDS011;1459;50.864;6.438;2022-12-29T13:24:28;7.03;;;2.42;;
2898;SDS011;1459;50.864;6.438;2022-12-29T13:27:06;6.90;;;1.50;;
2898;SDS011;1459;50.864;6.438;2022-12-29T13:29:44;6.43;;;2.40;;
2898;SDS011;1459;50.864;6.438;2022-12-29T13:32:23;4.28;;;1.20;;
2898;SDS011;1459;50.864;6.438;2022-12-29T13:35:01;3.95;;;1.40;;
2898;SDS011;1459;50.864;6.438;2022-12-29T13:37:44;4.32;;;1.40;;
2898;SDS011;1459;50.864;6.438;2022-12-29T13:40:16;4.20;;;1.35;;
2898;SDS011;1459;50.864;6.438;2022-12-29T13:42:48;3.75;;;1.50;;
2898;SDS011;1459;50.864;6.438;2022-12-29T13:45:17;6.70;;;1.30;;
2898;SDS011;1459;50.864;6.438;2022-12-29T13:47:48;5.78;;;1.52;;
2898;SDS011;1459;50.864;6.438;2022-12-29T13:50:20;3.85;;;1.65;;
2898;SDS011;1459;50.864;6.438;2022-12-29T13:52:53;7.30;;;3.22;;
2898;SDS011;1459;50.864;6.438;2022-12-29T13:55:26;5.63;;;1.67;;
2898;SDS011;1459;50.864;6.438;2022-12-29T13:58:00;4.57;;;1.35;;
2898;SDS011;1459;50.864;6.438;2022-12-29T14:00:37;5.22;;;1.58;;
2898;SDS011;1459;50.864;6.438;2022-12-29T14:03:19;6.70;;;1.40;;
2898;SDS011;1459;50.864;6.438;2022-12-29T14:06:05;6.57;;;1.50;;
2898;SDS011;1459;50.864;6.438;2022-12-29T14:08:42;3.42;;;1.40;;
2898;SDS011;1459;50.864;6.438;2022-12-29T14:11:10;4.75;;;1.52;;
2898;SDS011;1459;50.864;6.438;2022-12-29T14:13:42;6.10;;;2.67;;
2898;SDS011;1459;50.864;6.438;2022-12-29T14:16:22;5.07;;;1.30;;
2898;SDS011;1459;50.864;6.438;2022-12-29T14:18:52;5.60;;;1.30;;
2898;SDS011;1459;50.864;6.438;2022-12-29T14:21:22;3.17;;;1.42;;
2898;SDS011;1459;50.864;6.438;2022-12-29T14:23:53;2.95;;;1.30;;
2898;SDS011;1459;50.864;6.438;2022-12-29T14:26:33;3.50;;;1.50;;
2898;SDS011;1459;50.864;6.438;2022-12-29T14:38:06;8.23;;;1.55;;
2898;SDS011;1459;50.864;6.438;2022-12-29T14:40:41;4.75;;;1.80;;
2898;SDS011;1459;50.864;6.438;2022-12-29T14:43:11;3.25;;;1.40;;
2898;SDS011;1459;50.864;6.438;2022-12-29T14:45:42;6.45;;;1.70;;
2898;SDS011;1459;50.864;6.438;2022-12-29T14:51:18;9.35;;;2.13;;
2898;SDS011;1459;50.864;6.438;2022-12-29T14:53:53;10.68;;;2.45;;
2898;SDS011;1459;50.864;6.438;2022-12-29T14:56:23;5.95;;;1.80;;
2898;SDS011;1459;50.864;6.438;2022-12-29T14:58:53;7.20;;;1.63;;
2898;SDS011;1459;50.864;6.438;2022-12-29T15:01:28;6.38;;;1.85;;
2898;SDS011;1459;50.864;6.438;2022-12-29T15:04:05;3.67;;;1.50;;
2898;SDS011;1459;50.864;6.438;2022-12-29T15:06:41;6.70;;;1.75;;
2898;SDS011;1459;50.864;6.438;2022-12-29T15:09:14;5.07;;;1.70;;
2898;SDS011;1459;50.864;6.438;2022-12-29T15:11:50;5.28;;;1.60;;
2898;SDS011;1459;50.864;6.438;2022-12-29T15:14:29;5.07;;;2.17;;
2898;SDS011;1459;50.864;6.438;2022-12-29T15:17:08;7.88;;;1.70;;
2898;SDS011;1459;50.864;6.438;2022-12-29T15:19:37;7.00;;;1.60;;
2898;SDS011;1459;50.864;6.438;2022-12-29T15:22:04;4.03;;;1.80;;
2898;SDS011;1459;50.864;6.438;2022-12-29T15:24:32;6.28;;;2.13;;
2898;SDS011;1459;50.864;6.438;2022-12-29T15:27:02;4.72;;;2.20;;
2898;SDS011;1459;50.864;6.438;2022-12-29T15:29:31;8.25;;;1.92;;
2898;SDS011;1459;50.864;6.438;2022-12-29T15:32:14;6.93;;;2.00;;
2898;SDS011;1459;50.864;6.438;2022-12-29T15:34:44;4.90;;;1.67;;
2898;SDS011;1459;50.864;6.438;2022-12-29T15:37:16;6.50;;;1.88;;
2898;SDS011;1459;50.864;6.438;2022-12-29T15:39:45;4.63;;;1.77;;
2898;SDS011;1459;50.864;6.438;2022-12-29T15:42:17;8.25;;;1.95;;
2898;SDS011;1459;50.864;6.438;2022-12-29T15:45:00;11.00;;;2.25;;
2898;SDS011;1459;50.864;6.438;2022-12-29T15:47:34;12.38;;;2.83;;
2898;SDS011;1459;50.864;6.438;2022-12-29T15:50:02;5.97;;;2.15;;
2898;SDS011;1459;50.864;6.438;2022-12-29T15:52:36;8.88;;;1.92;;
2898;SDS011;1459;50.864;6.438;2022-12-29T15:55:09;4.18;;;2.15;;
2898;SDS011;1459;50.864;6.438;2022-12-29T15:57:46;6.22;;;1.90;;
2898;SDS011;1459;50.864;6.438;2022-12-29T16:00:23;8.20;;;2.38;;
2898;SDS011;1459;50.864;6.438;2022-12-29T16:02:55;7.20;;;1.85;;
2898;SDS011;1459;50.864;6.438;2022-12-29T16:05:31;11.60;;;2.17;;
2898;SDS011;1459;50.864;6.438;2022-12-29T16:07:59;8.65;;;2.92;;
2898;SDS011;1459;50.864;6.438;2022-12-29T16:10:32;10.15;;;2.05;;